sensor_id;sensor_type;location;lat;lon;timestamp;P1;durP1;ratioP1;P2;durP2;ratioP2
74614;SDS011;63121;51.458;-0.110;2022-10-31T00:02:05;12.23;;;1.83;;
74614;SDS011;63121;51.458;-0.110;2022-10-31T00:04:31;8.77;;;2.05;;
74614;SDS011;63121;51.458;-0.110;2022-10-31T00:06:56;9.70;;;2.17;;
74614;SDS011;63121;51.458;-0.110;2022-10-31T00:09:22;7.13;;;1.60;;
74614;SDS011;63121;51.458;-0.110;2022-10-31T00:11:47;8.02;;;1.63;;
74614;SDS011;63121;51.458;-0.110;2022-10-31T00:14:12;7.83;;;1.50;;
74614;SDS011;63121;51.458;-0.110;2022-10-31T00:16:38;9.00;;;1.88;;
74614;SDS011;63121;51.458;-0.110;2022-10-31T00:19:05;10.27;;;1.73;;
74614;SDS011;63121;51.458;-0.110;2022-10-31T00:21:32;16.98;;;3.78;;
74614;SDS011;63121;51.458;-0.110;2022-10-31T00:23:58;10.45;;;2.10;;
74614;SDS011;63121;51.458;-0.110;2022-10-31T00:26:25;11.88;;;2.33;;
74614;SDS011;63121;51.458;-0.110;2022-10-31T00:28:54;6.13;;;1.48;;
74614;SDS011;63121;51.458;-0.110;2022-10-31T00:31:20;9.50;;;2.10;;
74614;SDS011;63121;51.458;-0.110;2022-10-31T00:33:45;9.98;;;1.98;;
74614;SDS011;63121;51.458;-0.110;2022-10-31T00:36:12;9.00;;;1.83;;
74614;SDS011;63121;51.458;-0.110;2022-10-31T00:38:39;10.00;;;1.88;;
74614;SDS011;63121;51.458;-0.110;2022-10-31T00:41:05;11.25;;;2.38;;
74614;SDS011;63121;51.458;-0.110;2022-10-31T00:43:30;12.65;;;1.95;;
74614;SDS011;63121;51.458;-0.110;2022-10-31T00:45:55;12.23;;;2.10;;
74614;SDS011;63121;51.458;-0.110;2022-10-31T00:48:21;11.73;;;2.10;;
74614;SDS011;63121;51.458;-0.110;2022-10-31T00:50:46;15.60;;;3.80;;
74614;SDS011;63121;51.458;-0.110;2022-10-31T00:53:12;5.73;;;1.60;;
74614;SDS011;63121;51.458;-0.110;2022-10-31T00:55:37;11.40;;;2.20;;
74614;SDS011;63121;51.458;-0.110;2022-10-31T00:58:03;11.63;;;2.63;;
74614;SDS011;63121;51.458;-0.110;2022-10-31T01:00:28;8.70;;;2.50;;
74614;SDS011;63121;51.458;-0.110;2022-10-31T01:02:54;12.95;;;2.33;;
74614;SDS011;63121;51.458;-0.110;2022-10-31T01:05:19;12.50;;;2.63;;
74614;SDS011;63121;51.458;-0.110;2022-10-31T01:07:45;15.43;;;2.60;;
74614;SDS011;63121;51.458;-0.110;2022-10-31T01:10:10;11.48;;;2.22;;
74614;SDS011;63121;51.458;-0.110;2022-10-31T01:12:37;14.15;;;3.40;;
74614;SDS011;63121;51.458;-0.110;2022-10-31T01:15:07;18.88;;;4.25;;
74614;SDS011;63121;51.458;-0.110;2022-10-31T01:17:33;17.00;;;6.35;;
74614;SDS011;63121;51.458;-0.110;2022-10-31T01:19:59;24.25;;;9.63;;
74614;SDS011;63121;51.458;-0.110;2022-10-31T01:22:24;24.55;;;10.23;;
74614;SDS011;63121;51.458;-0.110;2022-10-31T01:24:49;28.55;;;10.95;;
74614;SDS011;63121;51.458;-0.110;2022-10-31T01:27:15;20.55;;;8.13;;
74614;SDS011;63121;51.458;-0.110;2022-10-31T01:29:40;25.15;;;7.47;;
74614;SDS011;63121;51.458;-0.110;2022-10-31T01:32:06;22.63;;;7.05;;
74614;SDS011;63121;51.458;-0.110;2022-10-31T01:34:31;15.77;;;4.77;;
74614;SDS011;63121;51.458;-0.110;2022-10-31T01:36:56;25.08;;;5.32;;
74614;SDS011;63121;51.458;-0.110;2022-10-31T01:39:22;16.30;;;4.13;;
74614;SDS011;63121;51.458;-0.110;2022-10-31T01:41:48;14.77;;;3.05;;
74614;SDS011;63121;51.458;-0.110;2022-10-31T01:46:42;13.53;;;2.67;;
74614;SDS011;63121;51.458;-0.110;2022-10-31T01:49:09;12.38;;;2.10;;
74614;SDS011;63121;51.458;-0.110;2022-10-31T01:51:41;10.15;;;2.08;;
74614;SDS011;63121;51.458;-0.110;2022-10-31T01:54:18;30.60;;;11.23;;
74614;SDS011;63121;51.458;-0.110;2022-10-31T01:56:49;12.05;;;1.90;;
74614;SDS011;63121;51.458;-0.110;2022-10-31T01:59:17;12.40;;;1.98;;
74614;SDS011;63121;51.458;-0.110;2022-10-31T02:01:46;7.28;;;1.52;;
74614;SDS011;63121;51.458;-0.110;2022-10-31T02:04:13;9.07;;;1.60;;
74614;SDS011;63121;51.458;-0.110;2022-10-31T02:09:09;11.50;;;1.75;;
74614;SDS011;63121;51.458;-0.110;2022-10-31T02:11:37;8.05;;;1.63;;
74614;SDS011;63121;51.458;-0.110;2022-10-31T02:14:03;12.85;;;2.50;;
74614;SDS011;63121;51.458;-0.110;2022-10-31T02:16:29;10.52;;;1.77;;
74614;SDS011;63121;51.458;-0.110;2022-10-31T02:18:54;6.93;;;1.80;;
74614;SDS011;63121;51.458;-0.110;2022-10-31T02:21:26;14.77;;;2.20;;
74614;SDS011;63121;51.458;-0.110;2022-10-31T02:34:17;12.00;;;1.80;;
74614;SDS011;63121;51.458;-0.110;2022-10-31T02:36:47;10.27;;;2.00;;
74614;SDS011;63121;51.458;-0.110;2022-10-31T02:39:26;12.73;;;2.22;;
74614;SDS011;63121;51.458;-0.110;2022-10-31T02:45:10;15.45;;;2.67;;
74614;SDS011;63121;51.458;-0.110;2022-10-31T02:47:44;10.75;;;2.10;;
74614;SDS011;63121;51.458;-0.110;2022-10-31T02:50:23;7.65;;;1.50;;
74614;SDS011;63121;51.458;-0.110;2022-10-31T02:52:54;9.50;;;1.90;;
74614;SDS011;63121;51.458;-0.110;2022-10-31T02:57:52;9.88;;;1.65;;
74614;SDS011;63121;51.458;-0.110;2022-10-31T03:00:20;15.05;;;2.00;;
74614;SDS011;63121;51.458;-0.110;2022-10-31T03:05:23;11.50;;;1.77;;
74614;SDS011;63121;51.458;-0.110;2022-10-31T03:10:51;11.25;;;1.60;;
74614;SDS011;63121;51.458;-0.110;2022-10-31T03:15:59;8.40;;;1.70;;
74614;SDS011;63121;51.458;-0.110;2022-10-31T03:19:00;9.10;;;1.60;;
74614;SDS011;63121;51.458;-0.110;2022-10-31T03:21:34;11.25;;;2.15;;
74614;SDS011;63121;51.458;-0.110;2022-10-31T03:24:01;12.35;;;1.85;;
74614;SDS011;63121;51.458;-0.110;2022-10-31T03:26:29;7.43;;;1.85;;
74614;SDS011;63121;51.458;-0.110;2022-10-31T03:31:27;9.18;;;2.03;;
74614;SDS011;63121;51.458;-0.110;2022-10-31T03:33:58;12.85;;;2.95;;
74614;SDS011;63121;51.458;-0.110;2022-10-31T03:36:25;7.78;;;1.60;;
74614;SDS011;63121;51.458;-0.110;2022-10-31T03:38:53;10.48;;;1.48;;
74614;SDS011;63121;51.458;-0.110;2022-10-31T03:41:21;9.13;;;1.88;;
74614;SDS011;63121;51.458;-0.110;2022-10-31T03:43:54;8.63;;;1.80;;
74614;SDS011;63121;51.458;-0.110;2022-10-31T03:46:24;9.27;;;1.63;;
74614;SDS011;63121;51.458;-0.110;2022-10-31T03:48:50;12.18;;;2.05;;
74614;SDS011;63121;51.458;-0.110;2022-10-31T03:53:44;9.87;;;1.60;;
74614;SDS011;63121;51.458;-0.110;2022-10-31T03:56:20;12.35;;;2.33;;
74614;SDS011;63121;51.458;-0.110;2022-10-31T03:58:58;12.82;;;2.00;;
74614;SDS011;63121;51.458;-0.110;2022-10-31T04:01:29;7.30;;;1.30;;
74614;SDS011;63121;51.458;-0.110;2022-10-31T04:03:57;10.57;;;1.70;;
74614;SDS011;63121;51.458;-0.110;2022-10-31T04:06:24;9.43;;;1.85;;
74614;SDS011;63121;51.458;-0.110;2022-10-31T04:09:08;13.43;;;1.98;;
74614;SDS011;63121;51.458;-0.110;2022-10-31T04:11:40;10.38;;;1.73;;
74614;SDS011;63121;51.458;-0.110;2022-10-31T04:14:10;14.13;;;2.30;;
74614;SDS011;63121;51.458;-0.110;2022-10-31T04:16:37;8.93;;;1.80;;
74614;SDS011;63121;51.458;-0.110;2022-10-31T04:19:07;13.05;;;1.83;;
74614;SDS011;63121;51.458;-0.110;2022-10-31T04:21:33;10.07;;;2.08;;
74614;SDS011;63121;51.458;-0.110;2022-10-31T04:23:58;12.63;;;2.15;;
74614;SDS011;63121;51.458;-0.110;2022-10-31T04:26:24;11.88;;;1.67;;
74614;SDS011;63121;51.458;-0.110;2022-10-31T04:28:50;12.65;;;2.22;;
74614;SDS011;63121;51.458;-0.110;2022-10-31T04:31:15;12.10;;;2.00;;
74614;SDS011;63121;51.458;-0.110;2022-10-31T04:33:41;9.48;;;1.50;;
74614;SDS011;63121;51.458;-0.110;2022-10-31T04:36:06;10.57;;;1.77;;
74614;SDS011;63121;51.458;-0.110;2022-10-31T04:38:32;11.20;;;1.90;;
74614;SDS011;63121;51.458;-0.110;2022-10-31T04:40:57;13.40;;;1.83;;
74614;SDS011;63121;51.458;-0.110;2022-10-31T04:43:22;19.17;;;1.90;;
74614;SDS011;63121;51.458;-0.110;2022-10-31T04:45:48;10.55;;;2.30;;
74614;SDS011;63121;51.458;-0.110;2022-10-31T04:48:13;9.02;;;1.77;;
74614;SDS011;63121;51.458;-0.110;2022-10-31T04:50:39;13.07;;;2.20;;
74614;SDS011;63121;51.458;-0.110;2022-10-31T04:53:04;6.45;;;1.60;;
74614;SDS011;63121;51.458;-0.110;2022-10-31T04:55:30;11.70;;;2.10;;
74614;SDS011;63121;51.458;-0.110;2022-10-31T04:57:55;11.53;;;1.67;;
74614;SDS011;63121;51.458;-0.110;2022-10-31T05:00:21;10.90;;;1.75;;
74614;SDS011;63121;51.458;-0.110;2022-10-31T05:02:47;12.05;;;1.40;;
74614;SDS011;63121;51.458;-0.110;2022-10-31T05:05:15;12.38;;;1.90;;
74614;SDS011;63121;51.458;-0.110;2022-10-31T05:07:42;9.18;;;1.52;;
74614;SDS011;63121;51.458;-0.110;2022-10-31T05:10:09;13.35;;;2.05;;
74614;SDS011;63121;51.458;-0.110;2022-10-31T05:12:36;9.93;;;1.60;;
74614;SDS011;63121;51.458;-0.110;2022-10-31T05:15:02;19.33;;;2.80;;
74614;SDS011;63121;51.458;-0.110;2022-10-31T05:17:28;16.95;;;2.53;;
74614;SDS011;63121;51.458;-0.110;2022-10-31T05:19:55;8.40;;;1.60;;
74614;SDS011;63121;51.458;-0.110;2022-10-31T05:22:21;10.48;;;1.90;;
74614;SDS011;63121;51.458;-0.110;2022-10-31T05:24:46;10.55;;;1.55;;
74614;SDS011;63121;51.458;-0.110;2022-10-31T05:27:12;10.52;;;1.23;;
74614;SDS011;63121;51.458;-0.110;2022-10-31T05:29:37;10.15;;;1.65;;
74614;SDS011;63121;51.458;-0.110;2022-10-31T05:32:03;15.85;;;2.20;;
74614;SDS011;63121;51.458;-0.110;2022-10-31T05:34:28;11.82;;;2.03;;
74614;SDS011;63121;51.458;-0.110;2022-10-31T05:36:53;8.63;;;1.60;;
74614;SDS011;63121;51.458;-0.110;2022-10-31T05:39:19;8.73;;;1.58;;
74614;SDS011;63121;51.458;-0.110;2022-10-31T05:41:44;8.77;;;1.35;;
74614;SDS011;63121;51.458;-0.110;2022-10-31T05:44:09;14.30;;;1.77;;
74614;SDS011;63121;51.458;-0.110;2022-10-31T05:46:35;9.93;;;1.40;;
74614;SDS011;63121;51.458;-0.110;2022-10-31T05:49:00;9.20;;;1.90;;
74614;SDS011;63121;51.458;-0.110;2022-10-31T05:51:26;7.68;;;1.63;;
74614;SDS011;63121;51.458;-0.110;2022-10-31T05:53:51;11.23;;;1.73;;
74614;SDS011;63121;51.458;-0.110;2022-10-31T05:56:16;11.10;;;1.53;;
74614;SDS011;63121;51.458;-0.110;2022-10-31T05:58:41;13.50;;;2.37;;
74614;SDS011;63121;51.458;-0.110;2022-10-31T06:01:07;15.87;;;2.10;;
74614;SDS011;63121;51.458;-0.110;2022-10-31T06:03:32;10.32;;;1.70;;
74614;SDS011;63121;51.458;-0.110;2022-10-31T06:05:58;12.38;;;1.90;;
74614;SDS011;63121;51.458;-0.110;2022-10-31T06:08:23;14.85;;;1.98;;
74614;SDS011;63121;51.458;-0.110;2022-10-31T06:10:48;15.60;;;2.05;;
74614;SDS011;63121;51.458;-0.110;2022-10-31T06:13:14;12.52;;;2.05;;
74614;SDS011;63121;51.458;-0.110;2022-10-31T06:15:40;10.63;;;1.98;;
74614;SDS011;63121;51.458;-0.110;2022-10-31T06:18:06;14.27;;;2.05;;
74614;SDS011;63121;51.458;-0.110;2022-10-31T06:20:32;13.65;;;1.50;;
74614;SDS011;63121;51.458;-0.110;2022-10-31T06:22:58;7.25;;;1.88;;
74614;SDS011;63121;51.458;-0.110;2022-10-31T06:25:23;10.18;;;1.88;;
74614;SDS011;63121;51.458;-0.110;2022-10-31T06:27:49;8.25;;;1.33;;
74614;SDS011;63121;51.458;-0.110;2022-10-31T06:30:14;10.88;;;2.85;;
74614;SDS011;63121;51.458;-0.110;2022-10-31T06:32:40;12.10;;;1.98;;
74614;SDS011;63121;51.458;-0.110;2022-10-31T06:35:05;15.80;;;2.08;;
74614;SDS011;63121;51.458;-0.110;2022-10-31T06:37:31;9.55;;;1.60;;
74614;SDS011;63121;51.458;-0.110;2022-10-31T06:39:56;11.37;;;2.47;;
74614;SDS011;63121;51.458;-0.110;2022-10-31T06:42:22;8.35;;;1.73;;
74614;SDS011;63121;51.458;-0.110;2022-10-31T06:44:47;12.45;;;1.77;;
74614;SDS011;63121;51.458;-0.110;2022-10-31T06:47:13;9.40;;;1.33;;
74614;SDS011;63121;51.458;-0.110;2022-10-31T06:49:38;7.90;;;1.45;;
74614;SDS011;63121;51.458;-0.110;2022-10-31T06:52:04;9.80;;;2.03;;
74614;SDS011;63121;51.458;-0.110;2022-10-31T06:54:30;10.48;;;1.90;;
74614;SDS011;63121;51.458;-0.110;2022-10-31T06:56:55;12.95;;;1.80;;
74614;SDS011;63121;51.458;-0.110;2022-10-31T06:59:21;10.30;;;2.00;;
74614;SDS011;63121;51.458;-0.110;2022-10-31T07:01:46;8.45;;;1.48;;
74614;SDS011;63121;51.458;-0.110;2022-10-31T07:04:11;7.65;;;1.80;;
74614;SDS011;63121;51.458;-0.110;2022-10-31T07:06:37;11.45;;;1.65;;
74614;SDS011;63121;51.458;-0.110;2022-10-31T07:09:03;8.35;;;1.90;;
74614;SDS011;63121;51.458;-0.110;2022-10-31T07:11:29;14.95;;;1.83;;
74614;SDS011;63121;51.458;-0.110;2022-10-31T07:13:54;9.05;;;1.60;;
74614;SDS011;63121;51.458;-0.110;2022-10-31T07:16:20;8.30;;;1.58;;
74614;SDS011;63121;51.458;-0.110;2022-10-31T07:18:45;12.05;;;1.90;;
74614;SDS011;63121;51.458;-0.110;2022-10-31T07:21:10;9.18;;;1.90;;
74614;SDS011;63121;51.458;-0.110;2022-10-31T07:23:36;9.18;;;2.08;;
74614;SDS011;63121;51.458;-0.110;2022-10-31T07:26:01;10.80;;;2.00;;
74614;SDS011;63121;51.458;-0.110;2022-10-31T07:28:27;14.87;;;2.00;;
74614;SDS011;63121;51.458;-0.110;2022-10-31T07:30:53;12.07;;;2.15;;
74614;SDS011;63121;51.458;-0.110;2022-10-31T07:33:20;10.63;;;2.53;;
74614;SDS011;63121;51.458;-0.110;2022-10-31T07:35:46;9.23;;;2.00;;
74614;SDS011;63121;51.458;-0.110;2022-10-31T07:38:12;10.73;;;1.80;;
74614;SDS011;63121;51.458;-0.110;2022-10-31T07:40:39;10.52;;;1.98;;
74614;SDS011;63121;51.458;-0.110;2022-10-31T07:43:05;9.10;;;1.90;;
74614;SDS011;63121;51.458;-0.110;2022-10-31T07:45:31;12.35;;;1.85;;
74614;SDS011;63121;51.458;-0.110;2022-10-31T07:47:56;9.75;;;1.80;;
74614;SDS011;63121;51.458;-0.110;2022-10-31T07:50:26;7.97;;;1.88;;
74614;SDS011;63121;51.458;-0.110;2022-10-31T07:53:06;7.97;;;1.90;;
74614;SDS011;63121;51.458;-0.110;2022-10-31T07:55:33;7.53;;;1.50;;
74614;SDS011;63121;51.458;-0.110;2022-10-31T07:58:05;11.70;;;1.80;;
74614;SDS011;63121;51.458;-0.110;2022-10-31T08:00:33;7.18;;;1.65;;
74614;SDS011;63121;51.458;-0.110;2022-10-31T08:03:01;8.40;;;1.83;;
74614;SDS011;63121;51.458;-0.110;2022-10-31T08:05:29;12.13;;;2.22;;
74614;SDS011;63121;51.458;-0.110;2022-10-31T08:07:55;8.30;;;1.90;;
74614;SDS011;63121;51.458;-0.110;2022-10-31T08:10:21;12.88;;;2.47;;
74614;SDS011;63121;51.458;-0.110;2022-10-31T08:12:47;12.63;;;2.10;;
74614;SDS011;63121;51.458;-0.110;2022-10-31T08:15:19;11.73;;;2.30;;
74614;SDS011;63121;51.458;-0.110;2022-10-31T08:17:44;9.90;;;2.17;;
74614;SDS011;63121;51.458;-0.110;2022-10-31T08:20:10;9.60;;;2.93;;
74614;SDS011;63121;51.458;-0.110;2022-10-31T08:22:35;13.95;;;2.75;;
74614;SDS011;63121;51.458;-0.110;2022-10-31T08:25:00;9.50;;;2.00;;
74614;SDS011;63121;51.458;-0.110;2022-10-31T08:27:26;8.13;;;2.33;;
74614;SDS011;63121;51.458;-0.110;2022-10-31T08:29:51;19.50;;;2.30;;
74614;SDS011;63121;51.458;-0.110;2022-10-31T08:32:16;11.83;;;1.93;;
74614;SDS011;63121;51.458;-0.110;2022-10-31T08:34:42;7.20;;;1.67;;
74614;SDS011;63121;51.458;-0.110;2022-10-31T08:37:07;9.55;;;1.70;;
74614;SDS011;63121;51.458;-0.110;2022-10-31T08:39:33;14.68;;;2.05;;
74614;SDS011;63121;51.458;-0.110;2022-10-31T08:41:58;7.97;;;1.53;;
74614;SDS011;63121;51.458;-0.110;2022-10-31T08:44:23;10.00;;;1.50;;
74614;SDS011;63121;51.458;-0.110;2022-10-31T08:46:49;10.75;;;2.03;;
74614;SDS011;63121;51.458;-0.110;2022-10-31T08:49:14;11.27;;;1.55;;
74614;SDS011;63121;51.458;-0.110;2022-10-31T08:51:40;10.68;;;1.77;;
74614;SDS011;63121;51.458;-0.110;2022-10-31T08:54:05;11.37;;;1.90;;
74614;SDS011;63121;51.458;-0.110;2022-10-31T08:56:30;11.33;;;1.93;;
74614;SDS011;63121;51.458;-0.110;2022-10-31T08:58:56;10.18;;;2.45;;
74614;SDS011;63121;51.458;-0.110;2022-10-31T09:01:21;10.65;;;2.00;;
74614;SDS011;63121;51.458;-0.110;2022-10-31T09:03:46;9.68;;;1.58;;
74614;SDS011;63121;51.458;-0.110;2022-10-31T09:06:12;9.90;;;1.58;;
74614;SDS011;63121;51.458;-0.110;2022-10-31T09:08:37;12.93;;;1.70;;
74614;SDS011;63121;51.458;-0.110;2022-10-31T09:11:04;9.32;;;2.28;;
74614;SDS011;63121;51.458;-0.110;2022-10-31T09:13:31;12.77;;;2.00;;
74614;SDS011;63121;51.458;-0.110;2022-10-31T09:15:57;11.77;;;2.15;;
74614;SDS011;63121;51.458;-0.110;2022-10-31T09:18:23;9.77;;;1.55;;
74614;SDS011;63121;51.458;-0.110;2022-10-31T09:20:50;10.45;;;1.63;;
74614;SDS011;63121;51.458;-0.110;2022-10-31T09:23:16;9.60;;;1.50;;
74614;SDS011;63121;51.458;-0.110;2022-10-31T09:25:46;6.95;;;1.45;;
74614;SDS011;63121;51.458;-0.110;2022-10-31T09:28:14;8.77;;;1.40;;
74614;SDS011;63121;51.458;-0.110;2022-10-31T09:30:41;8.98;;;1.60;;
74614;SDS011;63121;51.458;-0.110;2022-10-31T09:33:10;9.45;;;1.63;;
74614;SDS011;63121;51.458;-0.110;2022-10-31T09:35:37;7.85;;;1.50;;
74614;SDS011;63121;51.458;-0.110;2022-10-31T09:38:06;13.32;;;1.90;;
74614;SDS011;63121;51.458;-0.110;2022-10-31T09:48:41;8.68;;;1.83;;
74614;SDS011;63121;51.458;-0.110;2022-10-31T09:51:25;12.85;;;1.60;;
74614;SDS011;63121;51.458;-0.110;2022-10-31T09:54:06;10.20;;;1.70;;
74614;SDS011;63121;51.458;-0.110;2022-10-31T09:56:53;9.02;;;1.45;;
74614;SDS011;63121;51.458;-0.110;2022-10-31T10:02:01;5.82;;;1.27;;
74614;SDS011;63121;51.458;-0.110;2022-10-31T10:10:17;6.28;;;1.40;;
74614;SDS011;63121;51.458;-0.110;2022-10-31T10:27:17;11.88;;;1.40;;
74614;SDS011;63121;51.458;-0.110;2022-10-31T10:30:11;8.52;;;1.50;;
74614;SDS011;63121;51.458;-0.110;2022-10-31T10:32:50;4.30;;;1.15;;
74614;SDS011;63121;51.458;-0.110;2022-10-31T10:37:46;10.10;;;1.60;;
74614;SDS011;63121;51.458;-0.110;2022-10-31T10:40:17;8.43;;;1.50;;
74614;SDS011;63121;51.458;-0.110;2022-10-31T10:54:22;6.88;;;1.55;;
74614;SDS011;63121;51.458;-0.110;2022-10-31T10:59:25;8.02;;;1.50;;
74614;SDS011;63121;51.458;-0.110;2022-10-31T11:01:51;6.45;;;1.60;;
74614;SDS011;63121;51.458;-0.110;2022-10-31T11:07:00;9.30;;;1.90;;
74614;SDS011;63121;51.458;-0.110;2022-10-31T11:09:28;9.20;;;1.40;;
74614;SDS011;63121;51.458;-0.110;2022-10-31T11:11:54;9.18;;;1.73;;
74614;SDS011;63121;51.458;-0.110;2022-10-31T11:14:21;5.40;;;1.30;;
74614;SDS011;63121;51.458;-0.110;2022-10-31T11:16:48;7.55;;;1.45;;
74614;SDS011;63121;51.458;-0.110;2022-10-31T11:19:19;5.68;;;1.40;;
74614;SDS011;63121;51.458;-0.110;2022-10-31T11:21:51;5.55;;;1.20;;
74614;SDS011;63121;51.458;-0.110;2022-10-31T11:24:18;8.30;;;1.60;;
74614;SDS011;63121;51.458;-0.110;2022-10-31T11:26:49;7.38;;;1.60;;
74614;SDS011;63121;51.458;-0.110;2022-10-31T11:29:24;6.30;;;1.60;;
74614;SDS011;63121;51.458;-0.110;2022-10-31T11:31:53;11.73;;;1.65;;
74614;SDS011;63121;51.458;-0.110;2022-10-31T11:37:04;6.50;;;1.33;;
74614;SDS011;63121;51.458;-0.110;2022-10-31T11:39:41;7.88;;;1.40;;
74614;SDS011;63121;51.458;-0.110;2022-10-31T11:42:10;4.65;;;1.10;;
74614;SDS011;63121;51.458;-0.110;2022-10-31T11:44:36;7.68;;;1.30;;
74614;SDS011;63121;51.458;-0.110;2022-10-31T11:47:10;5.53;;;1.42;;
74614;SDS011;63121;51.458;-0.110;2022-10-31T11:49:39;4.93;;;1.65;;
74614;SDS011;63121;51.458;-0.110;2022-10-31T11:52:22;8.50;;;1.40;;
74614;SDS011;63121;51.458;-0.110;2022-10-31T11:54:55;4.80;;;1.38;;
74614;SDS011;63121;51.458;-0.110;2022-10-31T11:59:57;4.68;;;1.20;;
74614;SDS011;63121;51.458;-0.110;2022-10-31T12:02:26;6.75;;;1.27;;
74614;SDS011;63121;51.458;-0.110;2022-10-31T12:05:06;6.40;;;1.40;;
74614;SDS011;63121;51.458;-0.110;2022-10-31T12:07:42;4.60;;;1.30;;
74614;SDS011;63121;51.458;-0.110;2022-10-31T12:10:11;6.43;;;1.20;;
74614;SDS011;63121;51.458;-0.110;2022-10-31T12:13:00;5.30;;;1.30;;
74614;SDS011;63121;51.458;-0.110;2022-10-31T12:15:41;4.95;;;1.40;;
74614;SDS011;63121;51.458;-0.110;2022-10-31T12:26:16;5.93;;;1.40;;
74614;SDS011;63121;51.458;-0.110;2022-10-31T12:28:49;6.53;;;1.35;;
74614;SDS011;63121;51.458;-0.110;2022-10-31T12:31:48;5.85;;;1.40;;
74614;SDS011;63121;51.458;-0.110;2022-10-31T12:39:38;4.57;;;1.10;;
74614;SDS011;63121;51.458;-0.110;2022-10-31T12:42:11;4.57;;;1.17;;
74614;SDS011;63121;51.458;-0.110;2022-10-31T12:44:55;3.83;;;1.10;;
74614;SDS011;63121;51.458;-0.110;2022-10-31T12:58:31;5.25;;;1.02;;
74614;SDS011;63121;51.458;-0.110;2022-10-31T13:01:24;5.53;;;0.85;;
74614;SDS011;63121;51.458;-0.110;2022-10-31T13:07:28;3.83;;;1.00;;
74614;SDS011;63121;51.458;-0.110;2022-10-31T13:10:19;2.50;;;0.90;;
74614;SDS011;63121;51.458;-0.110;2022-10-31T13:12:50;3.78;;;0.95;;
74614;SDS011;63121;51.458;-0.110;2022-10-31T13:15:30;6.97;;;1.30;;
74614;SDS011;63121;51.458;-0.110;2022-10-31T13:18:01;5.53;;;1.15;;
74614;SDS011;63121;51.458;-0.110;2022-10-31T13:20:32;6.70;;;1.05;;
74614;SDS011;63121;51.458;-0.110;2022-10-31T13:23:10;2.78;;;0.90;;
74614;SDS011;63121;51.458;-0.110;2022-10-31T13:25:38;4.30;;;1.10;;
74614;SDS011;63121;51.458;-0.110;2022-10-31T13:30:51;5.97;;;1.05;;
74614;SDS011;63121;51.458;-0.110;2022-10-31T13:41:06;7.13;;;1.17;;
74614;SDS011;63121;51.458;-0.110;2022-10-31T13:44:00;3.80;;;0.98;;
74614;SDS011;63121;51.458;-0.110;2022-10-31T13:49:01;5.70;;;1.10;;
74614;SDS011;63121;51.458;-0.110;2022-10-31T13:56:23;5.63;;;1.30;;
74614;SDS011;63121;51.458;-0.110;2022-10-31T14:01:28;6.45;;;1.20;;
74614;SDS011;63121;51.458;-0.110;2022-10-31T14:09:22;7.30;;;1.30;;
74614;SDS011;63121;51.458;-0.110;2022-10-31T14:11:48;8.80;;;1.40;;
74614;SDS011;63121;51.458;-0.110;2022-10-31T14:14:15;5.18;;;1.00;;
74614;SDS011;63121;51.458;-0.110;2022-10-31T14:16:43;4.88;;;1.10;;
74614;SDS011;63121;51.458;-0.110;2022-10-31T14:19:15;4.03;;;1.00;;
74614;SDS011;63121;51.458;-0.110;2022-10-31T14:21:49;4.13;;;1.17;;
74614;SDS011;63121;51.458;-0.110;2022-10-31T14:29:38;5.90;;;1.15;;
74614;SDS011;63121;51.458;-0.110;2022-10-31T14:34:42;9.15;;;1.95;;
74614;SDS011;63121;51.458;-0.110;2022-10-31T14:50:29;9.18;;;1.60;;
74614;SDS011;63121;51.458;-0.110;2022-10-31T14:53:37;6.30;;;1.20;;
74614;SDS011;63121;51.458;-0.110;2022-10-31T14:56:13;5.43;;;1.20;;
74614;SDS011;63121;51.458;-0.110;2022-10-31T14:58:46;8.35;;;1.67;;
74614;SDS011;63121;51.458;-0.110;2022-10-31T15:01:22;5.53;;;1.13;;
74614;SDS011;63121;51.458;-0.110;2022-10-31T15:03:53;5.72;;;1.10;;
74614;SDS011;63121;51.458;-0.110;2022-10-31T15:06:27;5.35;;;1.55;;
74614;SDS011;63121;51.458;-0.110;2022-10-31T15:09:02;4.80;;;1.20;;
74614;SDS011;63121;51.458;-0.110;2022-10-31T15:11:27;5.93;;;1.60;;
74614;SDS011;63121;51.458;-0.110;2022-10-31T15:13:56;6.03;;;1.10;;
74614;SDS011;63121;51.458;-0.110;2022-10-31T15:19:04;9.65;;;1.75;;
74614;SDS011;63121;51.458;-0.110;2022-10-31T15:23:59;4.13;;;1.45;;
74614;SDS011;63121;51.458;-0.110;2022-10-31T15:26:29;4.47;;;1.25;;
74614;SDS011;63121;51.458;-0.110;2022-10-31T15:29:10;3.53;;;1.23;;
74614;SDS011;63121;51.458;-0.110;2022-10-31T15:31:48;5.32;;;1.40;;
74614;SDS011;63121;51.458;-0.110;2022-10-31T15:37:03;8.35;;;1.80;;
74614;SDS011;63121;51.458;-0.110;2022-10-31T15:39:30;5.03;;;1.52;;
74614;SDS011;63121;51.458;-0.110;2022-10-31T15:41:58;8.65;;;1.85;;
74614;SDS011;63121;51.458;-0.110;2022-10-31T15:44:25;11.15;;;2.42;;
74614;SDS011;63121;51.458;-0.110;2022-10-31T15:46:55;6.38;;;1.30;;
74614;SDS011;63121;51.458;-0.110;2022-10-31T15:49:27;6.10;;;1.45;;
74614;SDS011;63121;51.458;-0.110;2022-10-31T15:51:54;7.63;;;1.48;;
74614;SDS011;63121;51.458;-0.110;2022-10-31T15:54:20;7.05;;;1.30;;
74614;SDS011;63121;51.458;-0.110;2022-10-31T15:56:46;7.93;;;1.55;;
74614;SDS011;63121;51.458;-0.110;2022-10-31T15:59:16;5.97;;;1.50;;
74614;SDS011;63121;51.458;-0.110;2022-10-31T16:01:55;4.38;;;1.45;;
74614;SDS011;63121;51.458;-0.110;2022-10-31T16:06:57;4.68;;;1.35;;
74614;SDS011;63121;51.458;-0.110;2022-10-31T16:09:25;8.32;;;1.65;;
74614;SDS011;63121;51.458;-0.110;2022-10-31T16:11:50;6.22;;;1.40;;
74614;SDS011;63121;51.458;-0.110;2022-10-31T16:14:17;5.28;;;1.30;;
74614;SDS011;63121;51.458;-0.110;2022-10-31T16:16:50;8.32;;;1.60;;
74614;SDS011;63121;51.458;-0.110;2022-10-31T16:19:20;3.42;;;1.20;;
74614;SDS011;63121;51.458;-0.110;2022-10-31T16:21:48;7.05;;;1.83;;
74614;SDS011;63121;51.458;-0.110;2022-10-31T16:24:24;6.40;;;1.50;;
74614;SDS011;63121;51.458;-0.110;2022-10-31T16:26:53;8.25;;;1.40;;
74614;SDS011;63121;51.458;-0.110;2022-10-31T16:32:24;4.63;;;1.30;;
74614;SDS011;63121;51.458;-0.110;2022-10-31T16:34:59;6.93;;;1.50;;
74614;SDS011;63121;51.458;-0.110;2022-10-31T16:37:36;5.32;;;1.50;;
74614;SDS011;63121;51.458;-0.110;2022-10-31T16:40:02;4.22;;;1.27;;
74614;SDS011;63121;51.458;-0.110;2022-10-31T16:42:28;5.00;;;1.45;;
74614;SDS011;63121;51.458;-0.110;2022-10-31T16:44:54;7.13;;;1.42;;
74614;SDS011;63121;51.458;-0.110;2022-10-31T16:47:19;2.70;;;1.10;;
74614;SDS011;63121;51.458;-0.110;2022-10-31T16:49:46;7.97;;;1.40;;
74614;SDS011;63121;51.458;-0.110;2022-10-31T16:52:14;5.70;;;1.73;;
74614;SDS011;63121;51.458;-0.110;2022-10-31T16:54:40;5.72;;;1.40;;
74614;SDS011;63121;51.458;-0.110;2022-10-31T16:57:05;8.20;;;1.58;;
74614;SDS011;63121;51.458;-0.110;2022-10-31T16:59:31;8.05;;;1.88;;
74614;SDS011;63121;51.458;-0.110;2022-10-31T17:02:01;7.40;;;1.45;;
74614;SDS011;63121;51.458;-0.110;2022-10-31T17:04:28;5.55;;;1.63;;
74614;SDS011;63121;51.458;-0.110;2022-10-31T17:06:53;6.15;;;1.60;;
74614;SDS011;63121;51.458;-0.110;2022-10-31T17:09:19;4.97;;;1.30;;
74614;SDS011;63121;51.458;-0.110;2022-10-31T17:11:46;6.18;;;1.50;;
74614;SDS011;63121;51.458;-0.110;2022-10-31T17:14:14;9.18;;;2.10;;
74614;SDS011;63121;51.458;-0.110;2022-10-31T17:16:40;9.00;;;2.03;;
74614;SDS011;63121;51.458;-0.110;2022-10-31T17:19:07;5.38;;;1.52;;
74614;SDS011;63121;51.458;-0.110;2022-10-31T17:21:35;7.43;;;1.98;;
74614;SDS011;63121;51.458;-0.110;2022-10-31T17:24:00;8.20;;;2.10;;
74614;SDS011;63121;51.458;-0.110;2022-10-31T17:26:25;7.10;;;1.80;;
74614;SDS011;63121;51.458;-0.110;2022-10-31T17:28:51;7.72;;;1.90;;
74614;SDS011;63121;51.458;-0.110;2022-10-31T17:31:20;9.27;;;2.40;;
74614;SDS011;63121;51.458;-0.110;2022-10-31T17:33:48;9.65;;;2.42;;
74614;SDS011;63121;51.458;-0.110;2022-10-31T17:36:14;8.35;;;2.28;;